Time;durP1;ratioP1;P1;durP2;ratioP2;P2;SDS_P1;SDS_P2;PMS_P1;PMS_P2;Temp;Humidity;BMP_temperature;BMP_pressure;BME280_temperature;BME280_humidity;BME280_pressure;Samples;Min_cycle;Max_cycle;Signal;HPM_P1;HPM_P2
2023/03/03 00:02:25;;;;;;;16.48;10.27;;;;;;;0.31;52.25;100374.59;10347639;28;20209;-78
2023/03/03 00:07:27;;;;;;;14.57;8.60;;;;;;;0.38;52.48;100379.66;10350470;28;20146;-79
2023/03/03 00:12:30;;;;;;;13.95;7.53;;;;;;;0.34;52.48;100383.13;10345526;28;20077;-78
2023/03/03 00:17:37;;;;;;;13.43;7.50;;;;;;;0.29;53.11;100395.22;10347101;28;20053;-78
2023/03/03 00:22:39;;;;;;;13.32;7.97;;;;;;;0.23;52.90;100381.56;10349500;28;20062;-79
2023/03/03 00:27:41;;;;;;;13.43;7.45;;;;;;;0.13;52.86;100393.66;10340446;28;20057;-78
2023/03/03 00:32:46;;;;;;;12.60;7.10;;;;;;;0.12;53.25;100389.38;10345069;28;20057;-79
2023/03/03 00:37:59;;;;;;;11.85;7.28;;;;;;;0.13;53.60;100392.81;10352361;28;20124;-79
2023/03/03 00:43:27;;;;;;;12.75;7.45;;;;;;;0.09;53.90;100389.44;10349584;28;20049;-79
2023/03/03 00:48:35;;;;;;;12.82;7.35;;;;;;;0.06;53.71;100393.72;10347864;28;20123;-79
2023/03/03 00:53:38;;;;;;;13.75;7.55;;;;;;;0.01;53.54;100398.06;10333608;28;20050;-79
2023/03/03 00:58:40;;;;;;;12.75;7.38;;;;;;;0.00;53.88;100407.50;10344156;28;20406;-79
2023/03/03 01:03:42;;;;;;;13.48;7.40;;;;;;;0.08;54.04;100397.13;10348146;28;20046;-79
2023/03/03 01:08:44;;;;;;;16.88;8.00;;;;;;;0.02;54.08;100389.47;10360297;28;20108;-79
2023/03/03 01:13:48;;;;;;;15.73;8.27;;;;;;;-0.04;54.07;100395.53;10343759;28;20054;-79
2023/03/03 01:18:52;;;;;;;14.80;8.20;;;;;;;-0.04;54.21;100384.41;10347160;28;20060;-79
2023/03/03 01:23:55;;;;;;;12.35;7.50;;;;;;;-0.09;54.19;100391.31;10347883;28;20064;-79
2023/03/03 01:28:57;;;;;;;11.75;7.80;;;;;;;-0.28;54.87;100382.06;10343804;28;20096;-79
2023/03/03 01:33:59;;;;;;;14.13;7.95;;;;;;;-0.29;54.96;100388.09;10351215;28;20965;-79
2023/03/03 01:39:03;;;;;;;12.50;7.68;;;;;;;-0.23;54.97;100398.31;10347084;28;20521;-79
2023/03/03 01:44:14;;;;;;;12.95;8.02;;;;;;;-0.40;55.72;100390.75;10353241;28;20046;-80
2023/03/03 01:49:26;;;;;;;;;;;;;;;-0.64;56.42;100386.66;10346844;28;20132;-79
2023/03/03 01:54:42;;;;;;;14.32;8.02;;;;;;;-0.61;56.48;100386.63;10344393;28;19932;-79
2023/03/03 01:59:47;;;;;;;12.48;8.07;;;;;;;-0.50;55.82;100389.09;10343267;28;20042;-79
2023/03/03 02:04:49;;;;;;;15.20;8.77;;;;;;;-0.50;55.85;100383.97;10349232;28;20112;-80
2023/03/03 02:10:46;;;;;;;14.55;8.35;;;;;;;-0.53;56.37;100384.84;10342097;28;20072;-79
2023/03/03 02:15:55;;;;;;;12.85;7.97;;;;;;;-0.71;56.76;100379.84;10338987;28;20062;-79
2023/03/03 02:21:15;;;;;;;13.90;8.15;;;;;;;-0.72;56.83;100378.13;10343912;28;20049;-80
2023/03/03 02:26:26;;;;;;;12.20;8.25;;;;;;;-0.73;56.46;100391.84;10344650;28;20080;-79
2023/03/03 02:31:49;;;;;;;14.52;8.70;;;;;;;-0.92;57.17;100389.41;10341343;28;20056;-79
2023/03/03 02:36:51;;;;;;;13.90;8.07;;;;;;;-0.83;56.69;100404.75;10349656;28;20704;-80
2023/03/03 02:41:59;;;;;;;13.75;7.35;;;;;;;-0.84;56.94;100398.75;10351552;28;20053;-80
2023/03/03 02:47:02;;;;;;;14.30;8.00;;;;;;;-0.88;56.79;100385.97;10359511;28;20355;-79
2023/03/03 02:52:08;;;;;;;11.82;7.60;;;;;;;-0.88;57.00;100389.34;10345891;28;20086;-79
2023/03/03 02:57:13;;;;;;;13.68;7.60;;;;;;;-0.93;57.16;100393.69;10349623;28;20068;-79
2023/03/03 03:02:22;;;;;;;12.90;8.10;;;;;;;-1.10;57.04;100407.50;10355449;28;20050;-79
2023/03/03 03:07:32;;;;;;;12.02;7.57;;;;;;;-1.30;58.18;100393.03;10354531;28;20434;-79
2023/03/03 03:12:34;;;;;;;12.00;7.70;;;;;;;-1.12;57.60;100392.06;10357617;28;20060;-79
2023/03/03 03:17:55;;;;;;;17.40;9.52;;;;;;;-1.22;58.10;100388.72;10354936;28;20050;-79
2023/03/03 03:23:22;;;;;;;15.07;8.52;;;;;;;-1.29;58.54;100404.16;10352831;28;20829;-79
2023/03/03 03:28:25;;;;;;;15.52;7.90;;;;;;;-1.31;57.87;100405.88;10353978;28;20135;-78
2023/03/03 03:33:27;;;;;;;15.57;8.35;;;;;;;-1.25;57.96;100416.09;10353487;28;20065;-78
2023/03/03 03:38:30;;;;;;;13.05;8.05;;;;;;;-1.22;57.79;100411.81;10352721;28;20490;-79
2023/03/03 03:43:32;;;;;;;13.85;8.38;;;;;;;-1.29;57.78;100414.41;10357414;28;20132;-78
2023/03/03 03:48:34;;;;;;;13.40;7.95;;;;;;;-1.38;58.09;100424.69;10357946;28;20459;-78
2023/03/03 03:53:38;;;;;;;15.20;8.68;;;;;;;-1.35;58.05;100422.97;10356966;28;20050;-79
2023/03/03 03:58:41;;;;;;;18.83;8.85;;;;;;;-1.43;58.36;100418.75;10353724;28;20057;-78
2023/03/03 04:03:42;;;;;;;14.43;8.98;;;;;;;-1.53;58.38;100417.06;10355156;28;20049;-78
2023/03/03 04:08:45;;;;;;;15.85;8.88;;;;;;;-1.58;58.48;100411.97;10348376;28;20049;-79
2023/03/03 04:13:47;;;;;;;13.70;8.45;;;;;;;-1.58;58.52;100417.09;10347179;28;20082;-78
2023/03/03 04:18:50;;;;;;;14.63;9.38;;;;;;;-1.57;58.61;100417.91;10344779;28;20107;-78
2023/03/03 04:23:52;;;;;;;14.73;9.13;;;;;;;-1.60;58.86;100431.63;10345970;28;20069;-78
2023/03/03 04:28:53;;;;;;;14.70;9.05;;;;;;;-1.62;58.91;100429.91;10343160;28;20049;-78
2023/03/03 04:33:56;;;;;;;18.50;8.75;;;;;;;-1.62;58.80;100430.78;10345300;28;20038;-78
2023/03/03 04:38:58;;;;;;;21.95;9.23;;;;;;;-1.66;58.80;100420.53;10341137;28;20054;-78
2023/03/03 04:44:00;;;;;;;16.15;9.50;;;;;;;-1.70;59.00;100416.25;10343834;28;20778;-78
2023/03/03 04:49:03;;;;;;;17.85;10.40;;;;;;;-1.76;59.01;100421.41;10344694;28;20064;-78
2023/03/03 04:54:08;;;;;;;18.42;10.05;;;;;;;-1.89;58.92;100435.94;10344625;28;20764;-78
2023/03/03 04:59:10;;;;;;;16.83;9.18;;;;;;;-1.91;59.05;100436.81;10339544;28;20056;-78
2023/03/03 05:04:12;;;;;;;17.27;10.40;;;;;;;-1.80;59.23;100437.66;10345517;28;20049;-78
2023/03/03 05:09:14;;;;;;;16.02;9.38;;;;;;;-1.81;59.41;100441.06;10342533;28;20057;-78
2023/03/03 05:14:16;;;;;;;17.35;10.43;;;;;;;-1.82;59.18;100447.06;10344504;28;20068;-78
2023/03/03 05:19:18;;;;;;;18.55;10.85;;;;;;;-1.87;59.38;100446.19;10341517;28;20103;-78
2023/03/03 05:24:20;;;;;;;19.02;10.52;;;;;;;-1.94;59.69;100452.19;10344013;28;20057;-78
2023/03/03 05:29:22;;;;;;;17.50;10.10;;;;;;;-2.01;59.65;100441.97;10341028;28;20054;-78
2023/03/03 05:34:24;;;;;;;19.02;10.68;;;;;;;-2.07;59.93;100441.97;10343339;28;20054;-78
2023/03/03 05:39:28;;;;;;;18.92;10.27;;;;;;;-2.09;59.80;100438.56;10336487;28;20060;-78
2023/03/03 05:44:30;;;;;;;17.70;10.52;;;;;;;-2.20;60.08;100445.38;10341861;28;20042;-78
2023/03/03 05:49:32;;;;;;;18.00;10.00;;;;;;;-2.37;59.90;100464.16;10340512;28;20618;-78
2023/03/03 05:54:34;;;;;;;17.30;10.02;;;;;;;-2.41;59.89;100458.19;10341988;28;20500;-78
2023/03/03 05:59:36;;;;;;;19.60;10.07;;;;;;;-2.37;60.20;100462.47;10343395;28;20064;-78
2023/03/03 06:04:38;;;;;;;16.67;9.88;;;;;;;-2.22;60.07;100475.25;10354237;28;20236;-78
2023/03/03 06:09:41;;;;;;;17.60;10.82;;;;;;;-2.18;60.04;100489.78;10343222;28;20045;-78
2023/03/03 06:14:43;;;;;;;21.25;11.27;;;;;;;-2.26;59.75;100501.72;10347263;28;20155;-78
2023/03/03 06:19:46;;;;;;;20.50;11.50;;;;;;;-2.38;59.86;100505.97;10342042;28;20068;-78
2023/03/03 06:24:51;;;;;;;20.88;12.93;;;;;;;-2.34;60.14;100511.13;10342083;28;20144;-78
2023/03/03 06:29:53;;;;;;;18.90;11.55;;;;;;;-2.24;59.92;100512.84;10341159;28;20394;-78
2023/03/03 06:34:55;;;;;;;19.00;12.15;;;;;;;-2.20;59.82;100522.22;10339684;28;20050;-78
2023/03/03 06:39:59;;;;;;;17.33;10.40;;;;;;;-2.05;59.78;100527.38;10339618;28;20056;-78
2023/03/03 06:45:01;;;;;;;16.73;10.50;;;;;;;-1.93;59.59;100541.03;10342835;28;20057;-79
2023/03/03 06:50:03;;;;;;;19.08;11.13;;;;;;;-1.88;59.68;100544.47;10346437;28;20495;-79
2023/03/03 06:55:16;;;;;;;20.98;11.60;;;;;;;-1.80;59.93;100548.75;10344067;28;20054;-79
2023/03/03 07:00:23;;;;;;;22.35;12.80;;;;;;;-1.66;59.87;100564.13;10339604;28;20454;-79
2023/03/03 07:05:27;;;;;;;22.55;13.20;;;;;;;-1.51;59.83;100580.34;10339088;28;20104;-79
2023/03/03 07:10:29;;;;;;;29.52;14.23;;;;;;;-1.19;59.69;100585.44;10336632;28;20096;-79
2023/03/03 07:15:35;;;;;;;25.80;13.18;;;;;;;-0.91;59.52;100587.09;10338948;28;20125;-79
2023/03/03 07:20:39;;;;;;;30.15;17.33;;;;;;;-0.54;58.99;100598.94;10342295;28;20085;-79
2023/03/03 07:25:44;;;;;;;30.48;17.60;;;;;;;-0.31;58.50;100594.53;10348245;28;20056;-79
2023/03/03 07:30:49;;;;;;;27.52;16.40;;;;;;;-0.05;58.36;100598.69;10346562;28;20148;-79
2023/03/03 07:35:54;;;;;;;29.98;17.30;;;;;;;0.17;57.96;100601.09;10349580;28;20770;-79
2023/03/03 07:40:58;;;;;;;38.75;22.38;;;;;;;0.20;58.35;100610.50;10337637;28;20529;-79
2023/03/03 07:46:09;;;;;;;32.08;19.92;;;;;;;0.27;58.69;100617.31;10337887;28;20049;-79
2023/03/03 07:51:43;;;;;;;32.45;19.60;;;;;;;0.52;58.20;100629.13;10344806;28;20557;-79
2023/03/03 07:56:45;;;;;;;33.00;19.90;;;;;;;0.79;57.64;100623.72;10348355;28;20925;-78
2023/03/03 08:01:55;;;;;;;31.17;18.85;;;;;;;1.21;57.32;100613.00;10343066;28;20419;-78
2023/03/03 08:07:01;;;;;;;32.42;17.10;;;;;;;1.66;56.62;100621.94;10346110;28;20045;-78
2023/03/03 08:12:26;;;;;;;34.53;20.52;;;;;;;2.03;56.17;100630.03;10345271;28;20062;-78
2023/03/03 08:17:35;;;;;;;36.17;21.98;;;;;;;2.11;55.92;100623.03;10355835;28;20042;-78
2023/03/03 08:22:38;;;;;;;44.75;26.80;;;;;;;2.41;55.75;100616.53;10349983;28;20053;-79
2023/03/03 08:27:40;;;;;;;41.67;26.60;;;;;;;2.37;56.00;100608.00;10344414;28;20061;-79
2023/03/03 08:32:54;;;;;;;41.55;26.02;;;;;;;2.14;56.04;100621.25;10348744;28;20056;-79
2023/03/03 08:37:56;;;;;;;43.55;26.38;;;;;;;1.80;56.81;100632.06;10359737;28;20046;-79
2023/03/03 08:42:58;;;;;;;42.72;25.55;;;;;;;1.92;56.65;100634.47;10333755;28;20065;-79
2023/03/03 08:48:00;;;;;;;43.53;25.67;;;;;;;2.04;56.68;100630.00;10346139;28;20081;-79
2023/03/03 08:53:05;;;;;;;38.03;23.70;;;;;;;2.33;55.82;100632.16;10340618;28;20712;-79
2023/03/03 08:58:07;;;;;;;36.72;24.48;;;;;;;2.88;55.74;100626.94;10332361;28;20049;-79
2023/03/03 09:03:10;;;;;;;37.28;23.70;;;;;;;3.07;54.60;100623.97;10344005;28;20057;-79
2023/03/03 09:08:13;;;;;;;37.35;24.23;;;;;;;3.21;54.17;100630.66;10344389;28;20056;-79
2023/03/03 09:13:18;;;;;;;36.75;22.65;;;;;;;3.13;54.40;100637.69;10345717;28;20082;-79
2023/03/03 09:18:29;;;;;;;33.70;22.10;;;;;;;3.37;53.61;100638.09;10327273;28;20046;-79
2023/03/03 09:23:52;;;;;;;32.28;21.30;;;;;;;3.85;52.58;100638.84;10321869;28;20074;-79
2023/03/03 09:29:08;;;;;;;32.90;22.02;;;;;;;4.20;52.43;100648.44;10338350;28;20065;-79
2023/03/03 09:34:24;;;;;;;33.03;21.88;;;;;;;4.01;52.09;100653.16;10346319;28;20058;-80
2023/03/03 09:39:29;;;;;;;31.85;21.10;;;;;;;3.96;51.86;100646.38;10333203;28;20069;-80
2023/03/03 09:44:32;;;;;;;33.60;21.85;;;;;;;3.91;52.32;100651.66;10340529;28;20042;-80
2023/03/03 09:49:50;;;;;;;32.13;21.17;;;;;;;4.06;51.89;100648.75;10344145;28;20968;-80
2023/03/03 09:55:06;;;;;;;32.95;21.00;;;;;;;3.74;52.01;100645.97;10345966;28;20046;-81
2023/03/03 10:00:29;;;;;;;29.88;19.75;;;;;;;4.01;52.13;100644.53;10346039;28;20050;-79
2023/03/03 10:05:41;;;;;;;30.58;20.20;;;;;;;4.17;50.67;100649.34;10346460;28;20046;-79
2023/03/03 10:10:45;;;;;;;28.23;20.23;;;;;;;3.98;51.56;100652.38;10340253;28;20625;-79
2023/03/03 10:15:54;;;;;;;28.00;19.38;;;;;;;3.86;51.64;100658.69;10342266;28;20055;-79
2023/03/03 10:21:02;;;;;;;27.45;17.58;;;;;;;3.88;51.85;100669.84;10338540;28;20451;-80
2023/03/03 10:26:26;;;;;;;25.35;17.70;;;;;;;3.88;52.08;100675.84;10344957;28;20056;-81
2023/03/03 10:31:54;;;;;;;26.10;17.65;;;;;;;4.03;51.76;100672.09;10344381;28;20078;-80
2023/03/03 10:37:18;;;;;;;28.25;18.15;;;;;;;4.35;51.58;100680.00;10352101;28;20049;-81
2023/03/03 10:42:50;;;;;;;27.73;17.75;;;;;;;4.48;50.54;100691.78;10350596;28;20072;-80
2023/03/03 10:54:43;;;;;;;24.33;16.50;;;;;;;4.46;50.62;100690.97;10344371;28;20042;-80
2023/03/03 10:59:54;;;;;;;24.33;16.40;;;;;;;4.51;51.51;100690.88;10346376;28;20065;-80
2023/03/03 11:05:09;;;;;;;22.13;15.75;;;;;;;4.49;51.33;100675.38;10346048;28;20050;-80
2023/03/03 11:10:51;;;;;;;23.40;15.95;;;;;;;4.42;51.33;100673.81;10336688;28;20488;-81
2023/03/03 11:16:21;;;;;;;23.98;15.65;;;;;;;4.58;51.07;100667.38;10338857;28;20053;-80
2023/03/03 11:21:54;;;;;;;24.23;15.70;;;;;;;4.58;51.02;100667.38;10329575;28;20046;-80
2023/03/03 11:27:21;;;;;;;23.10;15.35;;;;;;;4.52;52.43;100662.34;10336028;28;20054;-80
2023/03/03 11:32:48;;;;;;;21.35;15.23;;;;;;;4.79;51.23;100655.66;10334309;28;20049;-81
2023/03/03 11:37:55;;;;;;;24.88;16.15;;;;;;;5.00;50.71;100654.25;10340866;28;20152;-81
2023/03/03 11:43:11;;;;;;;24.20;15.45;;;;;;;4.76;50.52;100641.94;10334102;28;20050;-80
2023/03/03 11:48:53;;;;;;;22.17;15.32;;;;;;;4.81;50.37;100635.72;10331958;28;20053;-80
2023/03/03 11:54:12;;;;;;;22.55;14.73;;;;;;;4.98;50.37;100630.97;10347398;28;20537;-80
2023/03/03 11:59:32;;;;;;;22.55;15.15;;;;;;;5.07;50.31;100624.69;10348101;28;20064;-80
2023/03/03 12:04:51;;;;;;;21.77;14.63;;;;;;;5.04;49.75;100617.00;10348500;28;20543;-80
2023/03/03 12:10:04;;;;;;;20.55;14.35;;;;;;;5.04;50.35;100609.22;10345398;28;20049;-80
2023/03/03 12:15:26;;;;;;;23.98;15.88;;;;;;;5.44;49.89;100597.72;10339301;28;20124;-80
2023/03/03 12:20:34;;;;;;;22.52;15.02;;;;;;;5.67;49.33;100589.28;10347281;28;20054;-80
2023/03/03 12:25:50;;;;;;;21.63;14.65;;;;;;;5.59;48.46;100588.66;10348577;28;20056;-82
2023/03/03 12:31:30;;;;;;;21.85;15.13;;;;;;;5.60;48.80;100581.69;10344626;28;20042;-80
2023/03/03 12:37:04;;;;;;;23.10;15.57;;;;;;;5.92;48.73;100566.88;10349388;28;20050;-81
2023/03/03 12:42:46;;;;;;;21.60;14.38;;;;;;;5.95;48.66;100556.41;10349124;28;20046;-80
2023/03/03 12:47:54;;;;;;;25.70;16.48;;;;;;;6.15;48.49;100547.97;10340966;28;20049;-80
2023/03/03 12:53:38;;;;;;;23.33;15.32;;;;;;;6.44;47.58;100537.53;10345769;28;20141;-80
2023/03/03 12:59:22;;;;;;;23.38;16.52;;;;;;;6.67;47.80;100536.75;10343519;28;20054;-80
2023/03/03 13:04:40;;;;;;;24.50;16.73;;;;;;;6.71;47.01;100533.16;10281215;28;20086;-80
2023/03/03 13:09:58;;;;;;;21.77;15.70;;;;;;;6.77;47.33;100530.34;10305766;28;20552;-80
2023/03/03 13:15:27;;;;;;;26.67;17.70;;;;;;;7.00;46.53;100520.81;10343256;28;20050;-80
2023/03/03 13:21:13;;;;;;;28.23;18.58;;;;;;;6.94;46.38;100525.38;10342032;28;20050;-81
2023/03/03 13:26:41;;;;;;;31.48;19.98;;;;;;;7.29;46.17;100517.16;10335679;28;20085;-81
2023/03/03 13:31:54;;;;;;;29.55;19.58;;;;;;;7.63;45.72;100517.56;10342384;28;20145;-80
2023/03/03 13:37:04;;;;;;;30.08;20.67;;;;;;;7.59;45.34;100512.56;10346288;28;20042;-81
2023/03/03 13:42:27;;;;;;;26.50;19.30;;;;;;;7.64;44.89;100514.09;10347836;28;20058;-80
2023/03/03 13:47:57;;;;;;;27.23;19.05;;;;;;;7.97;44.28;100502.34;10352007;28;20050;-79
2023/03/03 13:53:10;;;;;;;29.08;20.48;;;;;;;7.88;44.65;100499.25;10352950;28;20115;-80
2023/03/03 13:58:20;;;;;;;27.52;19.98;;;;;;;7.95;45.12;100501.56;10351491;28;20135;-79
2023/03/03 14:03:53;;;;;;;27.50;20.42;;;;;;;7.93;44.32;100500.78;10353478;28;20058;-80
2023/03/03 14:09:10;;;;;;;26.88;20.10;;;;;;;8.17;44.51;100493.75;10354337;28;20056;-80
2023/03/03 14:14:22;;;;;;;26.38;19.77;;;;;;;8.18;44.81;100489.41;10353529;28;20062;-79
2023/03/03 14:19:42;;;;;;;27.17;19.55;;;;;;;8.21;44.50;100490.13;10352402;28;20054;-80
2023/03/03 14:25:04;;;;;;;27.48;19.95;;;;;;;8.35;44.00;100489.53;10347388;28;20053;-80
2023/03/03 14:30:21;;;;;;;26.92;18.98;;;;;;;8.28;44.29;100490.72;10355142;28;20451;-80
2023/03/03 14:35:24;;;;;;;31.88;20.40;;;;;;;8.23;44.61;100490.91;10359658;28;20089;-80
2023/03/03 14:40:32;;;;;;;29.17;21.10;;;;;;;8.01;45.13;100482.25;10359889;28;20050;-80
2023/03/03 14:45:37;;;;;;;28.80;19.48;;;;;;;8.06;45.27;100485.47;10374641;28;20050;-80
2023/03/03 14:50:42;;;;;;;29.08;20.48;;;;;;;8.16;45.11;100481.63;10354490;28;20057;-80
2023/03/03 14:55:52;;;;;;;26.08;19.45;;;;;;;8.06;44.78;100487.25;10361166;28;20105;-80
2023/03/03 15:01:12;;;;;;;26.13;19.33;;;;;;;7.86;45.37;100473.28;10361251;28;20625;-80
2023/03/03 15:06:47;;;;;;;23.98;18.40;;;;;;;7.88;45.27;100473.22;10365646;28;20058;-80
2023/03/03 15:11:54;;;;;;;24.88;18.90;;;;;;;7.82;45.71;100471.72;10364374;28;20058;-80
2023/03/03 15:17:15;;;;;;;25.92;18.45;;;;;;;7.77;45.50;100471.03;10376872;28;20191;-80
2023/03/03 15:22:33;;;;;;;25.42;17.88;;;;;;;7.90;45.33;100471.38;10362350;28;20053;-79
2023/03/03 15:27:44;;;;;;;30.40;18.23;;;;;;;7.72;45.72;100461.72;10358733;28;20165;-80
2023/03/03 15:33:06;;;;;;;27.25;17.60;;;;;;;7.53;46.46;100461.56;10360982;28;20062;-81
2023/03/03 15:38:49;;;;;;;26.95;18.67;;;;;;;7.48;46.32;100455.72;10358262;28;20054;-80
2023/03/03 15:44:10;;;;;;;24.80;17.30;;;;;;;7.45;46.19;100461.03;10358428;28;20103;-80
2023/03/03 15:49:28;;;;;;;25.53;16.97;;;;;;;7.34;46.42;100458.00;10357180;28;20054;-80
2023/03/03 15:54:33;;;;;;;25.33;17.85;;;;;;;7.32;46.64;100462.44;10357287;28;20811;-80
2023/03/03 16:00:03;;;;;;;24.40;17.00;;;;;;;7.35;47.24;100475.31;10358383;28;21084;-82
2023/03/03 16:05:11;;;;;;;23.73;16.23;;;;;;;8.29;45.00;100476.75;10318745;28;20054;-80
2023/03/03 16:10:18;;;;;;;24.00;16.90;;;;;;;7.82;45.86;100474.31;10357066;28;20058;-81
2023/03/03 16:15:35;;;;;;;28.27;17.30;;;;;;;7.18;46.43;100482.91;10354941;28;20096;-81
2023/03/03 16:21:07;;;;;;;22.85;16.30;;;;;;;6.84;46.87;100496.28;10355432;28;20049;-81
2023/03/03 16:26:17;;;;;;;24.50;16.10;;;;;;;6.64;47.39;100498.72;10356588;28;20109;-81
2023/03/03 16:31:44;;;;;;;23.65;16.13;;;;;;;6.27;48.10;100490.47;10353227;28;20145;-80
2023/03/03 16:37:28;;;;;;;24.80;16.45;;;;;;;5.99;48.48;100500.03;10356694;28;20058;-81
2023/03/03 16:42:32;;;;;;;25.25;16.10;;;;;;;5.86;49.02;100514.31;10272152;28;20061;-81
2023/03/03 16:47:46;;;;;;;27.77;16.15;;;;;;;5.62;49.38;100522.81;10339035;28;20510;-81
2023/03/03 16:53:17;;;;;;;23.90;16.35;;;;;;;5.29;50.25;100532.44;10356780;28;20085;-81
2023/03/03 16:58:21;;;;;;;25.80;16.80;;;;;;;5.06;50.43;100538.31;10355976;28;20060;-81
2023/03/03 17:03:35;;;;;;;27.27;17.88;;;;;;;4.85;50.92;100540.63;10354056;28;20057;-81
2023/03/03 17:08:43;;;;;;;27.83;18.77;;;;;;;4.70;51.55;100549.63;10352138;28;20050;-81
2023/03/03 17:14:18;;;;;;;28.70;20.00;;;;;;;4.43;51.96;100558.94;10353493;28;20083;-81
2023/03/03 17:19:43;;;;;;;30.27;20.92;;;;;;;4.24;52.01;100557.72;10351416;28;20049;-80
2023/03/03 17:25:15;;;;;;;33.83;23.52;;;;;;;4.01;52.88;100565.16;10347943;28;20133;-80
2023/03/03 17:30:56;;;;;;;38.20;24.92;;;;;;;3.80;53.52;100575.97;10343044;28;20141;-80
2023/03/03 17:36:14;;;;;;;38.20;24.90;;;;;;;3.72;53.27;100583.06;10349974;28;20052;-80
2023/03/03 17:41:56;;;;;;;41.92;25.90;;;;;;;3.53;53.93;100598.09;10350680;28;20073;-81
2023/03/03 17:47:08;;;;;;;42.95;26.88;;;;;;;3.55;54.02;100605.81;10331401;28;20057;-81
2023/03/03 17:52:21;;;;;;;45.47;28.48;;;;;;;3.34;54.29;100619.16;10338389;28;20119;-81
2023/03/03 17:57:39;;;;;;;53.42;32.72;;;;;;;3.34;54.45;100622.63;10341056;28;21006;-81
2023/03/03 18:03:11;;;;;;;45.38;28.50;;;;;;;3.32;54.45;100624.38;10342018;28;20387;-81
2023/03/03 18:08:23;;;;;;;46.55;28.90;;;;;;;3.22;54.36;100632.34;10345439;28;20177;-82
2023/03/03 18:13:40;;;;;;;53.90;30.52;;;;;;;3.07;55.05;100650.72;10347854;28;20050;-78
2023/03/03 18:18:42;;;;;;;44.67;27.67;;;;;;;3.08;54.83;100640.34;10339645;28;20407;-78
2023/03/03 18:23:46;;;;;;;50.25;29.23;;;;;;;2.95;55.25;100649.19;10341169;28;20058;-80
2023/03/03 18:29:20;;;;;;;48.50;29.30;;;;;;;2.85;55.68;100660.56;10341474;28;20050;-80
2023/03/03 18:34:37;;;;;;;55.15;30.80;;;;;;;2.76;55.86;100661.59;10346543;28;20046;-80
2023/03/03 18:40:02;;;;;;;54.30;30.48;;;;;;;2.67;56.24;100666.03;10337676;28;20504;-80
2023/03/03 18:45:18;;;;;;;53.50;31.80;;;;;;;2.70;55.91;100679.72;10342818;28;20054;-79
2023/03/03 18:50:33;;;;;;;57.80;30.92;;;;;;;2.60;55.64;100679.94;10340183;28;20062;-79
2023/03/03 18:55:44;;;;;;;55.92;30.98;;;;;;;2.36;56.25;100683.72;10341509;28;20557;-79
2023/03/03 19:01:07;;;;;;;58.03;30.88;;;;;;;2.30;56.65;100691.53;10347714;28;20053;-79
2023/03/03 19:06:30;;;;;;;62.60;31.33;;;;;;;2.18;57.16;100696.88;10331123;28;20053;-79
2023/03/03 19:11:37;;;;;;;66.15;33.30;;;;;;;2.15;56.91;100700.34;10335319;28;20422;-80
2023/03/03 19:16:39;;;;;;;70.05;34.42;;;;;;;2.11;56.87;100697.84;10346134;28;20038;-79
2023/03/03 19:21:46;;;;;;;69.35;34.60;;;;;;;2.08;57.00;100692.72;10350509;28;20053;-81
2023/03/03 19:27:16;;;;;;;69.82;33.72;;;;;;;1.93;57.60;100698.09;10347707;28;20092;-80
2023/03/03 19:32:25;;;;;;;75.15;34.10;;;;;;;1.89;57.52;100704.16;10349999;28;20052;-80
2023/03/03 19:37:41;;;;;;;65.00;32.85;;;;;;;1.87;57.78;100704.16;10361021;28;20089;-79
2023/03/03 19:43:14;;;;;;;73.47;35.67;;;;;;;1.78;57.97;100708.56;10360346;28;20089;-78
2023/03/03 19:48:34;;;;;;;78.20;37.10;;;;;;;1.59;57.97;100713.09;10357226;28;20081;-79
2023/03/03 19:53:48;;;;;;;78.78;37.08;;;;;;;1.59;58.00;100704.50;10355834;28;20062;-79
2023/03/03 19:59:23;;;;;;;78.57;37.60;;;;;;;1.51;58.70;100714.03;10352828;28;20423;-79
2023/03/03 20:04:46;;;;;;;77.53;37.38;;;;;;;1.43;58.67;100711.53;10354210;28;20053;-79
2023/03/03 20:10:23;;;;;;;83.25;36.83;;;;;;;1.44;58.64;100715.84;10347492;28;20803;-79
2023/03/03 20:15:56;;;;;;;84.72;37.35;;;;;;;1.34;58.55;100719.34;10348609;28;20518;-78
2023/03/03 20:21:15;;;;;;;82.55;38.78;;;;;;;1.24;58.85;100722.88;10353041;28;20060;-78
2023/03/03 20:26:30;;;;;;;89.50;39.00;;;;;;;1.22;58.50;100733.22;10352190;28;20060;-78
2023/03/03 20:32:17;;;;;;;81.45;37.78;;;;;;;1.09;59.25;100736.78;10341518;28;20530;-78
2023/03/03 20:37:56;;;;;;;87.22;38.40;;;;;;;1.01;59.57;100730.00;10342058;28;20096;-79
2023/03/03 20:43:13;;;;;;;88.13;39.00;;;;;;;0.96;59.74;100730.03;10338589;28;20183;-78
2023/03/03 20:48:21;;;;;;;87.13;38.83;;;;;;;1.01;59.22;100728.28;10346631;28;20054;-78
2023/03/03 20:53:34;;;;;;;82.55;37.72;;;;;;;0.99;59.64;100729.97;10343871;28;20145;-79
2023/03/03 20:58:36;;;;;;;89.28;40.92;;;;;;;1.03;59.39;100736.84;10340280;28;20053;-79
2023/03/03 21:03:41;;;;;;;87.38;39.63;;;;;;;0.96;59.44;100745.47;10345629;28;21534;-79
2023/03/03 21:08:55;;;;;;;87.28;38.60;;;;;;;0.88;59.40;100743.81;10345395;28;20058;-79
2023/03/03 21:14:00;;;;;;;82.60;38.63;;;;;;;0.77;59.76;100743.88;10339280;28;20684;-78
2023/03/03 21:19:05;;;;;;;90.10;40.03;;;;;;;0.75;59.99;100745.63;10343121;28;20046;-78
2023/03/03 21:24:18;;;;;;;83.88;38.95;;;;;;;0.65;60.40;100751.69;10343194;28;20049;-78
2023/03/03 21:29:29;;;;;;;85.65;37.72;;;;;;;0.67;60.69;100746.56;10342575;28;20042;-79
2023/03/03 21:34:36;;;;;;;98.20;41.38;;;;;;;0.74;60.14;100748.22;10340969;28;20046;-79
2023/03/03 21:39:42;;;;;;;90.53;39.33;;;;;;;0.64;60.62;100751.72;10345760;28;20050;-79
2023/03/03 21:44:48;;;;;;;85.30;38.90;;;;;;;0.58;60.57;100752.63;10345373;28;20058;-79
2023/03/03 21:49:51;;;;;;;84.43;39.60;;;;;;;0.54;60.73;100753.50;10346352;28;20100;-79
2023/03/03 21:54:53;;;;;;;85.35;39.33;;;;;;;0.54;60.88;100746.63;10353379;28;20061;-79
2023/03/03 21:59:55;;;;;;;84.47;37.30;;;;;;;0.49;60.96;100747.50;10353527;28;20041;-79
2023/03/03 22:04:58;;;;;;;86.63;37.10;;;;;;;0.49;61.11;100755.22;10350225;28;20092;-79
2023/03/03 22:10:00;;;;;;;84.90;37.10;;;;;;;0.54;61.08;100750.94;10346631;28;20050;-79
2023/03/03 22:15:02;;;;;;;85.47;38.15;;;;;;;0.48;61.13;100749.22;10346783;28;20089;-79
2023/03/03 22:20:04;;;;;;;78.63;36.17;;;;;;;0.50;61.11;100751.81;10346561;28;20052;-79
2023/03/03 22:25:07;;;;;;;85.65;37.65;;;;;;;0.51;60.99;100762.09;10345212;28;20050;-79
2023/03/03 22:30:09;;;;;;;84.95;37.15;;;;;;;0.47;61.00;100760.41;10340272;28;20045;-79
2023/03/03 22:35:11;;;;;;;89.45;38.17;;;;;;;0.44;61.02;100772.44;10344569;28;20423;-79
2023/03/03 22:40:13;;;;;;;89.75;39.42;;;;;;;0.33;61.23;100766.47;10343113;28;20810;-79
2023/03/03 22:45:15;;;;;;;84.20;37.35;;;;;;;0.24;61.33;100767.38;10337152;28;20926;-78
2023/03/03 22:50:18;;;;;;;86.68;38.67;;;;;;;0.23;61.35;100764.81;10344706;28;20045;-79
2023/03/03 22:55:22;;;;;;;86.75;37.20;;;;;;;0.18;61.32;100775.13;10352349;28;20061;-79
2023/03/03 23:00:24;;;;;;;84.00;37.60;;;;;;;0.15;61.34;100772.56;10351038;28;20042;-79
2023/03/03 23:05:26;;;;;;;90.43;37.83;;;;;;;0.11;61.24;100770.88;10351956;28;20077;-79
2023/03/03 23:10:28;;;;;;;90.28;38.65;;;;;;;-0.00;61.60;100779.47;10344908;28;20050;-78
2023/03/03 23:15:29;;;;;;;91.78;39.20;;;;;;;-0.13;61.80;100772.69;10352983;28;20053;-79
2023/03/03 23:20:31;;;;;;;87.80;38.13;;;;;;;-0.18;61.63;100769.25;10352568;28;20054;-79
2023/03/03 23:25:33;;;;;;;87.30;38.92;;;;;;;-0.25;62.04;100767.56;10348568;28;20654;-79
2023/03/03 23:30:35;;;;;;;94.10;39.13;;;;;;;-0.29;62.07;100759.00;10350896;28;20161;-79
2023/03/03 23:35:36;;;;;;;92.72;38.70;;;;;;;-0.35;62.04;100765.00;10349972;28;20045;-79
2023/03/03 23:40:38;;;;;;;94.55;38.35;;;;;;;-0.33;62.23;100762.44;10345873;28;20056;-79
2023/03/03 23:45:40;;;;;;;90.55;38.13;;;;;;;-0.26;61.83;100763.28;10341943;28;20053;-79